Time;durP1;ratioP1;P1;durP2;ratioP2;P2;SDS_P1;SDS_P2;PMS_P1;PMS_P2;Temp;Humidity;BMP_temperature;BMP_pressure;BME280_temperature;BME280_humidity;BME280_pressure;Samples;Min_cycle;Max_cycle;Signal;HPM_P1;HPM_P2
2022/12/08 00:00:51;;;;;;;20.05;10.98;;;;;;;-2.32;100.00;101482.22;5016028;28;20041;-76
2022/12/08 00:03:16;;;;;;;22.90;12.20;;;;;;;-2.32;100.00;101481.38;4999767;28;20037;-75
2022/12/08 00:11:15;;;;;;;24.10;12.73;;;;;;;-2.14;100.00;101474.31;5032244;28;20478;-75
2022/12/08 00:13:41;;;;;;;18.70;11.57;;;;;;;-2.55;100.00;101411.41;4999642;28;20484;-75
2022/12/08 00:16:07;;;;;;;17.20;11.35;;;;;;;-2.39;100.00;101456.25;4999620;28;20069;-74
2022/12/08 00:18:33;;;;;;;24.05;12.07;;;;;;;-2.48;100.00;101462.84;5015929;28;20127;-75
2022/12/08 00:20:59;;;;;;;20.63;12.38;;;;;;;-2.54;100.00;101458.72;4999655;28;20387;-76
2022/12/08 00:23:25;;;;;;;17.40;10.70;;;;;;;-2.59;100.00;101458.09;5015878;28;20041;-74
2022/12/08 00:25:51;;;;;;;19.13;9.15;;;;;;;-2.57;100.00;101455.38;4999265;28;20111;-75
2022/12/08 00:28:17;;;;;;;27.52;13.57;;;;;;;-2.66;100.00;101448.78;4999552;28;20395;-75
2022/12/08 00:30:43;;;;;;;24.83;12.05;;;;;;;-2.69;100.00;101446.31;5015761;28;20034;-74
2022/12/08 00:33:09;;;;;;;23.30;13.73;;;;;;;-2.75;100.00;101454.47;5032309;28;20042;-74
2022/12/08 00:35:35;;;;;;;20.52;11.90;;;;;;;-2.68;100.00;101443.56;5031968;28;20029;-75
2022/12/08 00:38:01;;;;;;;20.15;11.05;;;;;;;-2.68;100.00;101440.94;5031836;28;20516;-74
2022/12/08 00:40:27;;;;;;;21.98;12.52;;;;;;;-2.78;100.00;101433.56;5031843;28;20045;-74
2022/12/08 00:42:52;;;;;;;21.85;12.80;;;;;;;-2.75;100.00;101433.41;5015408;28;20048;-74
2022/12/08 00:45:18;;;;;;;25.98;11.57;;;;;;;-2.72;100.00;101435.94;4999609;28;20116;-74
2022/12/08 00:47:44;;;;;;;22.63;14.23;;;;;;;-2.83;100.00;101418.03;5015867;28;20088;-74
2022/12/08 00:50:10;;;;;;;21.95;12.15;;;;;;;-2.88;100.00;101420.88;5015482;28;20022;-74
2022/12/08 00:52:36;;;;;;;25.02;12.85;;;;;;;-2.98;100.00;101422.22;5015413;28;20040;-74
2022/12/08 00:55:03;;;;;;;19.75;10.85;;;;;;;-3.10;100.00;101410.50;4999404;28;20146;-74
2022/12/08 00:57:28;;;;;;;30.75;14.18;;;;;;;-3.22;100.00;101400.56;5032008;28;20083;-74
2022/12/08 00:59:54;;;;;;;24.27;12.68;;;;;;;-3.17;100.00;101400.34;4999416;28;20037;-74
2022/12/08 01:02:20;;;;;;;19.50;12.05;;;;;;;-3.18;100.00;101393.38;5015572;28;20091;-74
2022/12/08 01:04:46;;;;;;;20.38;9.98;;;;;;;-3.02;100.00;101396.13;5033595;28;20030;-74
2022/12/08 01:07:12;;;;;;;20.92;11.00;;;;;;;-2.83;100.00;101383.81;5019297;28;20472;-74
2022/12/08 01:09:37;;;;;;;19.13;10.38;;;;;;;-2.61;100.00;101380.97;5002467;28;20037;-74
2022/12/08 01:12:04;;;;;;;17.05;9.85;;;;;;;-2.41;100.00;101387.84;5035189;28;20100;-74
2022/12/08 01:14:30;;;;;;;23.50;12.90;;;;;;;-2.36;100.00;101385.84;5035557;28;20033;-74
2022/12/08 01:16:55;;;;;;;20.63;10.48;;;;;;;-2.38;100.00;101384.22;5002866;28;20049;-74
2022/12/08 01:19:21;;;;;;;16.25;8.27;;;;;;;-2.40;100.00;101384.31;5035341;28;20065;-74
2022/12/08 01:21:47;;;;;;;26.35;14.02;;;;;;;-2.38;100.00;101381.59;5002838;28;20029;-74
2022/12/08 01:24:18;;;;;;;36.78;16.83;;;;;;;-1.96;100.00;101381.16;5002702;28;20483;-74
2022/12/08 01:26:44;;;;;;;33.67;14.23;;;;;;;-2.05;100.00;101387.78;5035295;28;20022;-74
2022/12/08 01:29:10;;;;;;;49.58;17.83;;;;;;;-2.37;100.00;101376.25;5018721;28;20491;-74
2022/12/08 01:31:36;;;;;;;49.20;18.75;;;;;;;-2.53;100.00;101378.81;5002570;28;20041;-73
2022/12/08 01:34:02;;;;;;;44.72;16.98;;;;;;;-2.69;100.00;101370.81;5035209;28;20041;-74
2022/12/08 01:36:30;;;;;;;23.63;11.98;;;;;;;-2.84;100.00;101366.28;5002397;28;20061;-74
2022/12/08 01:38:58;;;;;;;27.58;11.75;;;;;;;-2.95;100.00;101365.97;5018747;28;20494;-74
2022/12/08 01:41:25;;;;;;;33.17;14.98;;;;;;;-3.03;100.00;101358.44;5034985;28;20131;-74
2022/12/08 01:44:12;;;;;;;23.88;11.52;;;;;;;-3.05;100.00;101359.44;5018643;28;20041;-73
2022/12/08 01:46:40;;;;;;;22.90;10.43;;;;;;;-3.11;100.00;101356.19;5018786;28;20033;-76
2022/12/08 01:49:06;;;;;;;23.45;10.88;;;;;;;-3.10;100.00;101363.16;5018341;28;20112;-73
2022/12/08 01:51:35;;;;;;;19.63;8.45;;;;;;;-3.12;100.00;101349.22;5034464;28;20530;-73
2022/12/08 01:54:02;;;;;;;15.48;8.85;;;;;;;-3.18;100.00;101353.91;5002170;28;20510;-76
2022/12/08 01:56:37;;;;;;;15.45;7.47;;;;;;;-3.34;100.00;101338.00;5034724;28;20031;-74
2022/12/08 01:59:03;;;;;;;16.00;9.30;;;;;;;-3.54;100.00;101313.50;5051597;28;20045;-75
2022/12/08 02:01:29;;;;;;;18.77;10.20;;;;;;;-3.50;100.00;101321.25;5051130;28;20485;-75
2022/12/08 02:03:59;;;;;;;19.52;10.73;;;;;;;-3.54;100.00;101325.81;5017999;28;20037;-74
2022/12/08 02:06:26;;;;;;;15.80;8.35;;;;;;;-3.57;100.00;101333.84;5017997;28;20026;-74
2022/12/08 02:08:54;;;;;;;18.38;8.30;;;;;;;-3.60;100.00;101331.34;5034515;28;20033;-74
2022/12/08 02:11:20;;;;;;;24.10;11.52;;;;;;;-3.55;100.00;101338.09;5034551;28;20475;-74
2022/12/08 02:13:46;;;;;;;23.15;10.63;;;;;;;-3.50;100.00;101329.13;5001728;28;20045;-74
2022/12/08 02:16:24;;;;;;;22.23;10.18;;;;;;;-3.36;100.00;101334.59;5033477;28;20029;-74
2022/12/08 02:18:50;;;;;;;18.90;11.35;;;;;;;-3.38;100.00;101315.44;5017962;28;20037;-74
2022/12/08 02:21:33;;;;;;;55.42;19.90;;;;;;;-3.12;100.00;101328.19;5017811;28;20060;-74
2022/12/08 02:24:07;;;;;;;22.10;9.20;;;;;;;-2.98;100.00;101330.13;5034222;28;20418;-73
2022/12/08 02:26:48;;;;;;;18.17;9.57;;;;;;;-2.89;100.00;101328.81;5017845;28;20041;-73
2022/12/08 02:29:38;;;;;;;18.75;8.65;;;;;;;-2.90;100.00;101319.25;5017702;28;20064;-74
2022/12/08 02:32:48;;;;;;;13.23;7.10;;;;;;;-3.03;100.00;101310.25;5017715;28;20120;-74
2022/12/08 02:35:23;;;;;;;20.17;9.80;;;;;;;-3.01;100.00;101308.41;5017855;28;20033;-74
2022/12/08 02:37:49;;;;;;;17.98;9.20;;;;;;;-2.98;100.00;101313.50;5033687;28;20445;-73
2022/12/08 02:40:21;;;;;;;23.17;10.25;;;;;;;-2.96;100.00;101316.91;5017086;28;20447;-74
2022/12/08 02:43:00;;;;;;;19.50;8.60;;;;;;;-3.00;100.00;101312.72;5017539;28;20037;-74
2022/12/08 02:45:53;;;;;;;19.70;8.90;;;;;;;-2.99;100.00;101310.03;5034065;28;20033;-74
2022/12/08 02:48:19;;;;;;;14.52;8.63;;;;;;;-2.95;100.00;101318.59;5016886;28;20079;-73
2022/12/08 02:50:45;;;;;;;16.98;8.48;;;;;;;-2.94;100.00;101300.13;5001153;28;20041;-74
2022/12/08 02:53:10;;;;;;;14.75;8.43;;;;;;;-2.90;100.00;101304.28;5017278;28;20040;-74
2022/12/08 02:56:13;;;;;;;17.42;8.90;;;;;;;-2.89;100.00;101294.63;5033402;28;20422;-74
2022/12/08 02:59:11;;;;;;;15.38;7.57;;;;;;;-2.95;100.00;101287.03;5017186;28;20060;-73
2022/12/08 03:01:39;;;;;;;11.98;7.32;;;;;;;-3.02;100.00;101278.56;5003175;28;20041;-74
2022/12/08 03:04:12;;;;;;;13.68;8.07;;;;;;;-3.06;100.00;101273.56;5017158;28;20044;-74
2022/12/08 03:06:50;;;;;;;15.18;8.23;;;;;;;-3.14;100.00;101266.06;5016989;28;20033;-73
2022/12/08 03:09:37;;;;;;;11.90;7.32;;;;;;;-3.19;100.00;101261.00;5016844;28;20034;-73
2022/12/08 03:12:27;;;;;;;15.32;7.75;;;;;;;-3.13;100.00;101276.47;5017090;28;20049;-73
2022/12/08 03:14:55;;;;;;;15.57;8.70;;;;;;;-3.21;100.00;101260.22;5000629;28;20040;-73
2022/12/08 03:17:26;;;;;;;14.52;7.97;;;;;;;-3.13;100.00;101267.75;5000499;28;20037;-73
2022/12/08 03:19:53;;;;;;;11.25;6.32;;;;;;;-3.15;100.00;101252.06;5001568;28;20056;-73
2022/12/08 03:22:21;;;;;;;15.18;7.72;;;;;;;-3.05;100.00;101256.84;5000459;28;20033;-74
2022/12/08 03:24:47;;;;;;;14.95;8.45;;;;;;;-3.00;100.00;101246.94;5032896;28;20515;-74
2022/12/08 03:27:22;;;;;;;18.80;9.48;;;;;;;-2.90;100.00;101237.66;5032746;28;20100;-74
2022/12/08 03:29:51;;;;;;;18.73;8.30;;;;;;;-2.74;100.00;101243.00;5016482;28;20033;-74
2022/12/08 03:32:33;;;;;;;17.52;7.97;;;;;;;-2.66;100.00;101236.41;5032599;28;20025;-74
2022/12/08 03:35:07;;;;;;;18.67;9.13;;;;;;;-2.63;100.00;101231.91;5000380;28;20037;-74
2022/12/08 03:37:35;;;;;;;23.67;8.85;;;;;;;-2.59;100.00;101212.38;5032896;28;20391;-74
2022/12/08 03:40:02;;;;;;;17.52;8.45;;;;;;;-2.42;100.00;101222.03;5000041;28;20041;-74
2022/12/08 03:42:28;;;;;;;18.17;8.18;;;;;;;-2.30;100.00;101224.88;5016529;28;20074;-74
2022/12/08 03:44:54;;;;;;;18.23;8.95;;;;;;;-2.24;100.00;101221.91;5032503;28;20088;-74
2022/12/08 03:47:20;;;;;;;23.67;10.38;;;;;;;-2.17;100.00;101218.94;5032954;28;20029;-74
2022/12/08 03:49:45;;;;;;;27.48;9.80;;;;;;;-2.08;100.00;101210.56;4999814;28;20430;-74
2022/12/08 03:52:11;;;;;;;22.23;10.90;;;;;;;-1.97;100.00;101204.69;5000308;28;20076;-74
2022/12/08 03:54:37;;;;;;;22.48;11.80;;;;;;;-1.91;100.00;101204.34;5032297;28;20392;-74
2022/12/08 03:57:02;;;;;;;28.70;11.25;;;;;;;-1.88;100.00;101202.41;5016265;28;20376;-74
2022/12/08 03:59:28;;;;;;;28.17;9.93;;;;;;;-1.81;100.00;101200.28;4999966;28;20114;-74
2022/12/08 04:01:54;;;;;;;26.80;10.00;;;;;;;-1.77;100.00;101207.94;5049355;28;20142;-73
2022/12/08 04:04:20;;;;;;;25.40;11.45;;;;;;;-1.79;100.00;101196.59;4999631;28;20037;-74
2022/12/08 04:06:46;;;;;;;24.38;10.70;;;;;;;-1.71;100.00;101203.25;5049307;28;20423;-74
2022/12/08 04:09:12;;;;;;;21.67;9.93;;;;;;;-1.67;100.00;101194.22;5015882;28;20380;-74
2022/12/08 04:11:37;;;;;;;22.40;10.98;;;;;;;-1.65;100.00;101189.72;5032652;28;20029;-74
2022/12/08 04:14:03;;;;;;;14.02;8.65;;;;;;;-1.58;100.00;101189.28;4999803;28;20067;-74
2022/12/08 04:16:29;;;;;;;28.50;12.07;;;;;;;-1.50;100.00;101186.22;5016153;28;20060;-74
2022/12/08 04:18:54;;;;;;;36.30;12.55;;;;;;;-1.48;100.00;101184.34;5016066;28;20383;-74
2022/12/08 04:21:20;;;;;;;31.63;12.38;;;;;;;-1.53;100.00;101177.59;4999844;28;20132;-74
2022/12/08 04:23:46;;;;;;;24.02;10.20;;;;;;;-1.58;100.00;101175.25;4999716;28;20030;-74
2022/12/08 04:26:13;;;;;;;19.83;8.18;;;;;;;-1.62;100.00;101173.72;5014494;28;20041;-74
2022/12/08 04:28:39;;;;;;;25.70;10.40;;;;;;;-1.70;100.00;101166.22;5014591;28;20083;-74
2022/12/08 04:31:05;;;;;;;26.73;10.45;;;;;;;-1.80;100.00;101171.19;4998148;28;20041;-74
2022/12/08 04:33:30;;;;;;;22.17;10.10;;;;;;;-1.94;100.00;101165.00;4999664;28;20029;-74
2022/12/08 04:35:56;;;;;;;22.10;11.73;;;;;;;-2.11;100.00;101164.13;4999560;28;20037;-73
2022/12/08 04:38:22;;;;;;;23.20;11.40;;;;;;;-2.25;100.00;101167.53;5015933;28;20541;-73
2022/12/08 04:40:49;;;;;;;17.35;10.00;;;;;;;-2.32;100.00;101153.00;5019369;28;20037;-74
2022/12/08 04:43:15;;;;;;;20.45;9.88;;;;;;;-2.24;100.00;101166.59;5003460;28;20044;-74
2022/12/08 04:45:41;;;;;;;18.73;8.13;;;;;;;-2.13;100.00;101157.25;5052561;28;20037;-74
2022/12/08 04:48:07;;;;;;;26.42;10.00;;;;;;;-2.01;100.00;101149.53;5019600;28;20033;-73
2022/12/08 04:50:33;;;;;;;21.67;10.88;;;;;;;-1.93;100.00;101137.69;5036108;28;20061;-73
2022/12/08 04:52:59;;;;;;;21.05;9.13;;;;;;;-1.87;100.00;101135.56;5003299;28;20435;-74
2022/12/08 04:55:25;;;;;;;17.60;9.48;;;;;;;-1.78;100.00;101137.66;5035934;28;20068;-74
2022/12/08 04:57:50;;;;;;;22.30;10.10;;;;;;;-1.68;100.00;101139.78;5036102;28;20124;-74
2022/12/08 05:00:16;;;;;;;27.42;9.18;;;;;;;-1.64;100.00;101136.03;5003077;28;20476;-74
2022/12/08 05:02:42;;;;;;;19.17;8.55;;;;;;;-1.58;100.00;101131.25;5002986;28;20052;-74
2022/12/08 05:05:08;;;;;;;23.05;10.02;;;;;;;-1.48;100.00;101131.59;5003046;28;20115;-74
2022/12/08 05:07:34;;;;;;;17.75;9.07;;;;;;;-1.50;100.00;101120.28;5019580;28;20505;-74
2022/12/08 05:10:00;;;;;;;20.08;9.10;;;;;;;-1.52;100.00;101114.22;5019058;28;20061;-74
2022/12/08 05:12:26;;;;;;;20.77;9.00;;;;;;;-1.58;100.00;101110.16;5003001;28;20383;-73
2022/12/08 05:14:51;;;;;;;17.70;7.40;;;;;;;-1.60;100.00;101108.56;5002934;28;20041;-74
2022/12/08 05:17:17;;;;;;;17.20;9.13;;;;;;;-1.67;100.00;101107.22;5002882;28;20038;-74
2022/12/08 05:19:43;;;;;;;16.65;8.25;;;;;;;-1.69;100.00;101103.81;5002831;28;20490;-74
2022/12/08 05:22:09;;;;;;;9.68;7.15;;;;;;;-1.79;100.00;101085.91;5002753;28;20171;-74
2022/12/08 05:24:34;;;;;;;14.77;8.18;;;;;;;-1.65;100.00;101100.06;5019055;28;20120;-74
2022/12/08 05:27:00;;;;;;;15.15;7.50;;;;;;;-1.62;100.00;101097.25;5018871;28;20040;-74
2022/12/08 05:29:26;;;;;;;19.10;9.43;;;;;;;-1.58;100.00;101102.25;5018788;28;20171;-74
2022/12/08 05:31:52;;;;;;;15.18;9.43;;;;;;;-1.63;100.00;101092.94;5002514;28;20497;-73
2022/12/08 05:34:17;;;;;;;19.58;9.20;;;;;;;-1.62;100.00;101092.81;5002589;28;20025;-74
2022/12/08 05:36:43;;;;;;;18.88;9.88;;;;;;;-1.66;100.00;101082.56;5035300;28;20048;-74
2022/12/08 05:39:13;;;;;;;14.13;7.75;;;;;;;-1.69;100.00;101080.94;5002464;28;20037;-73
2022/12/08 05:41:39;;;;;;;16.58;8.02;;;;;;;-1.94;100.00;101043.75;5018394;28;20492;-74
2022/12/08 05:44:07;;;;;;;17.00;9.00;;;;;;;-1.85;100.00;101075.72;5035015;28;20029;-73
2022/12/08 05:46:33;;;;;;;22.15;9.65;;;;;;;-1.96;100.00;101075.47;5018451;28;20036;-74
2022/12/08 05:49:00;;;;;;;15.77;8.75;;;;;;;-2.01;100.00;101069.63;5034837;28;20472;-74
2022/12/08 05:51:27;;;;;;;12.82;7.38;;;;;;;-2.06;100.00;101074.31;5017427;28;20033;-74
2022/12/08 05:53:53;;;;;;;17.13;9.02;;;;;;;-2.09;100.00;101069.19;5051381;28;20424;-74
2022/12/08 05:56:19;;;;;;;12.45;7.63;;;;;;;-2.08;100.00;101063.84;5051274;28;20037;-74
2022/12/08 05:58:45;;;;;;;14.52;7.20;;;;;;;-2.04;100.00;101056.59;5034929;28;20083;-74
2022/12/08 06:01:26;;;;;;;11.90;7.25;;;;;;;-2.01;100.00;101051.19;5002015;28;20029;-74
2022/12/08 06:03:52;;;;;;;13.93;8.02;;;;;;;-1.96;100.00;101048.25;5050856;28;20064;-74
2022/12/08 06:06:18;;;;;;;16.05;7.55;;;;;;;-1.84;100.00;101061.59;5034884;28;20456;-74
2022/12/08 06:08:44;;;;;;;16.08;7.45;;;;;;;-1.83;100.00;101052.72;5001783;28;20032;-74
2022/12/08 06:11:26;;;;;;;11.60;6.75;;;;;;;-1.89;100.00;101041.72;5018098;28;20517;-74
2022/12/08 06:13:53;;;;;;;13.23;7.00;;;;;;;-1.78;100.00;101036.66;5034426;28;20398;-74
2022/12/08 06:16:18;;;;;;;20.92;8.77;;;;;;;-1.72;100.00;101040.72;5002016;28;20037;-74
2022/12/08 06:18:44;;;;;;;18.55;9.73;;;;;;;-1.74;100.00;101039.97;5034483;28;20491;-74
2022/12/08 06:21:12;;;;;;;23.73;9.55;;;;;;;-1.84;100.00;101040.50;5018007;28;20033;-74
2022/12/08 06:23:38;;;;;;;22.77;10.32;;;;;;;-1.92;100.00;101020.81;5017781;28;20460;-74
2022/12/08 06:26:09;;;;;;;22.42;9.85;;;;;;;-1.96;100.00;101030.66;5017937;28;20068;-74
2022/12/08 06:28:35;;;;;;;17.38;9.02;;;;;;;-1.95;100.00;101042.06;5001413;28;20037;-73
2022/12/08 06:31:13;;;;;;;14.65;8.35;;;;;;;-1.89;100.00;101025.91;5001648;28;20610;-74
2022/12/08 06:33:39;;;;;;;16.23;9.13;;;;;;;-1.90;100.00;101022.41;5033832;28;20029;-74
2022/12/08 06:36:05;;;;;;;22.33;9.07;;;;;;;-2.03;100.00;100998.56;5017589;28;20039;-74
2022/12/08 06:38:31;;;;;;;19.40;8.93;;;;;;;-1.82;100.00;101033.34;5034071;28;20112;-74
2022/12/08 06:40:58;;;;;;;16.95;7.55;;;;;;;-1.74;100.00;101029.44;5001211;28;20041;-74
2022/12/08 06:43:25;;;;;;;17.55;8.98;;;;;;;-1.67;100.00;101036.88;5033804;28;20091;-74
2022/12/08 06:45:51;;;;;;;17.85;9.38;;;;;;;-1.62;100.00;101026.91;5033905;28;20029;-73
2022/12/08 06:48:17;;;;;;;13.77;7.68;;;;;;;-1.53;100.00;101025.53;5017360;28;20164;-74
2022/12/08 06:50:42;;;;;;;15.95;7.93;;;;;;;-1.47;100.00;101026.94;5017130;28;20052;-74
2022/12/08 06:53:13;;;;;;;16.40;8.25;;;;;;;-1.45;100.00;101018.00;5001107;28;20041;-74
2022/12/08 06:55:50;;;;;;;21.38;9.30;;;;;;;-1.42;100.00;101024.88;5033906;28;20128;-74
2022/12/08 06:58:15;;;;;;;19.90;9.13;;;;;;;-1.46;100.00;101002.25;5033260;28;20026;-74
2022/12/08 07:00:42;;;;;;;18.75;9.93;;;;;;;-1.35;100.00;101016.50;5000749;28;20484;-74
2022/12/08 07:03:09;;;;;;;22.77;10.02;;;;;;;-1.30;100.00;101023.28;5000615;28;20040;-74
2022/12/08 07:05:36;;;;;;;23.88;8.88;;;;;;;-1.26;100.00;101014.25;5033186;28;20491;-74
2022/12/08 07:08:02;;;;;;;17.73;8.27;;;;;;;-1.34;100.00;100993.59;5049991;28;20045;-74
2022/12/08 07:10:28;;;;;;;18.00;9.00;;;;;;;-1.21;100.00;101013.03;5033055;28;20030;-74
2022/12/08 07:12:53;;;;;;;16.52;9.07;;;;;;;-1.15;100.00;101011.78;5000889;28;20081;-74
2022/12/08 07:15:19;;;;;;;15.77;8.80;;;;;;;-1.13;100.00;101000.19;5016645;28;20388;-74
2022/12/08 07:17:46;;;;;;;15.07;8.98;;;;;;;-0.99;100.00;101011.69;5000410;28;20387;-74
2022/12/08 07:20:12;;;;;;;17.65;8.80;;;;;;;-0.91;100.00;101002.34;5016696;28;20124;-74
2022/12/08 07:22:38;;;;;;;16.83;8.70;;;;;;;-0.86;100.00;100998.59;5000511;28;20447;-74
2022/12/08 07:25:04;;;;;;;19.63;8.48;;;;;;;-0.80;100.00;100998.19;5016685;28;20124;-74
2022/12/08 07:27:30;;;;;;;19.23;10.15;;;;;;;-0.79;100.00;101006.03;5000510;28;20049;-74
2022/12/08 07:29:59;;;;;;;17.15;8.57;;;;;;;-0.83;100.00;101006.31;5000104;28;20029;-73
2022/12/08 07:32:25;;;;;;;19.88;8.77;;;;;;;-0.86;100.00;101011.78;5016744;28;20104;-74
2022/12/08 07:34:51;;;;;;;17.75;8.18;;;;;;;-0.88;100.00;101010.06;5000250;28;20103;-74
2022/12/08 07:37:19;;;;;;;15.55;8.23;;;;;;;-0.93;100.00;101009.53;5016930;28;20086;-73
2022/12/08 07:39:45;;;;;;;13.13;7.22;;;;;;;-0.93;100.00;101009.53;5000172;28;20120;-74
2022/12/08 07:42:11;;;;;;;15.60;7.50;;;;;;;-0.90;100.00;101006.69;5016360;28;20035;-73
2022/12/08 07:44:36;;;;;;;13.60;6.88;;;;;;;-0.85;100.00;101000.25;4999845;28;20059;-73
2022/12/08 07:47:02;;;;;;;10.02;5.07;;;;;;;-0.80;100.00;100998.19;5000167;28;20095;-73
2022/12/08 07:49:28;;;;;;;13.70;7.35;;;;;;;-0.75;100.00;101002.22;5032327;28;20053;-75
2022/12/08 07:51:54;;;;;;;7.45;4.30;;;;;;;-0.73;100.00;100999.50;5000102;28;20033;-73
2022/12/08 07:54:19;;;;;;;15.32;6.28;;;;;;;-0.68;100.00;100997.41;4999984;28;20037;-74
2022/12/08 07:56:45;;;;;;;10.00;6.13;;;;;;;-0.67;100.00;100992.03;4999850;28;20040;-73
2022/12/08 07:59:11;;;;;;;13.43;7.38;;;;;;;-0.64;100.00;100996.25;5048714;28;20036;-73
2022/12/08 08:01:36;;;;;;;14.30;7.65;;;;;;;-0.60;100.00;100995.13;5016181;28;20036;-74
2022/12/08 08:04:04;;;;;;;6.30;3.83;;;;;;;-0.55;100.00;101000.13;5016140;28;20065;-73
2022/12/08 08:06:31;;;;;;;11.85;6.28;;;;;;;-0.55;100.00;101000.13;4999865;28;20053;-74
2022/12/08 08:08:56;;;;;;;11.27;6.25;;;;;;;-0.49;100.00;101000.56;5032347;28;20026;-75
2022/12/08 08:11:22;;;;;;;8.88;6.05;;;;;;;-0.52;100.00;100989.38;5015979;28;20041;-75
2022/12/08 08:13:49;;;;;;;11.82;6.65;;;;;;;-0.45;100.00;100993.28;5015365;28;20095;-76
2022/12/08 08:16:15;;;;;;;9.00;6.00;;;;;;;-0.38;100.00;100996.38;5015862;28;20033;-75
2022/12/08 08:18:42;;;;;;;14.13;7.88;;;;;;;-0.35;100.00;100996.19;5015899;28;20045;-75
2022/12/08 08:21:08;;;;;;;10.95;6.68;;;;;;;-0.34;100.00;100990.81;5032083;28;20030;-75
2022/12/08 08:23:34;;;;;;;22.17;10.45;;;;;;;-0.33;100.00;100999.59;5033205;28;20160;-75
2022/12/08 08:26:01;;;;;;;16.42;8.48;;;;;;;-0.31;100.00;100995.06;5032138;28;20030;-75
2022/12/08 08:28:28;;;;;;;15.98;8.20;;;;;;;-0.30;100.00;100999.38;5032214;28;20095;-75
2022/12/08 08:30:54;;;;;;;17.63;9.07;;;;;;;-0.30;100.00;100999.38;5048717;28;20056;-75
2022/12/08 08:33:20;;;;;;;5.80;4.57;;;;;;;-0.29;100.00;101003.69;5032368;28;20045;-75
2022/12/08 08:35:45;;;;;;;12.15;6.40;;;;;;;-0.28;100.00;101008.06;4999468;28;20033;-75
2022/12/08 08:38:11;;;;;;;13.35;7.68;;;;;;;-0.30;100.00;101009.94;5015744;28;20029;-74
2022/12/08 08:40:37;;;;;;;14.90;6.90;;;;;;;-0.27;100.00;101007.09;5015536;28;20076;-75
2022/12/08 08:43:04;;;;;;;11.32;6.20;;;;;;;-0.27;100.00;101007.94;5015723;28;20072;-74
2022/12/08 08:45:30;;;;;;;17.27;8.10;;;;;;;-0.24;100.00;100999.84;4999459;28;20049;-75
2022/12/08 08:47:56;;;;;;;10.38;5.90;;;;;;;-0.22;100.00;100999.72;5031917;28;20048;-74
2022/12/08 08:50:22;;;;;;;11.00;7.03;;;;;;;-0.22;100.00;100995.28;5015457;28;20049;-74
2022/12/08 08:52:49;;;;;;;13.57;7.20;;;;;;;-0.34;100.00;100971.47;4999311;28;20459;-74
2022/12/08 08:55:15;;;;;;;26.27;12.35;;;;;;;-0.23;100.00;100983.03;5015735;28;20029;-74
2022/12/08 08:57:41;;;;;;;44.47;22.77;;;;;;;-0.21;100.00;100988.22;5015689;28;20056;-75
2022/12/08 09:00:08;;;;;;;35.88;15.45;;;;;;;-0.33;100.00;100983.72;4999408;28;20479;-74
2022/12/08 09:02:37;;;;;;;19.77;9.38;;;;;;;-0.32;100.00;100986.28;5031864;28;20032;-74
2022/12/08 09:05:04;;;;;;;14.43;8.00;;;;;;;-0.21;100.00;100988.22;4999293;28;20048;-74
2022/12/08 09:07:29;;;;;;;13.45;6.65;;;;;;;-0.06;100.00;100984.53;4999310;28;20440;-73
2022/12/08 09:09:56;;;;;;;10.38;6.13;;;;;;;-0.03;100.00;100973.78;5015312;28;20068;-74
2022/12/08 09:12:21;;;;;;;10.63;6.18;;;;;;;0.04;100.00;100970.72;5015461;28;20026;-73
2022/12/08 09:14:47;;;;;;;13.15;6.40;;;;;;;-0.10;100.00;100972.50;5015545;28;20038;-74
2022/12/08 09:17:13;;;;;;;12.18;6.22;;;;;;;-0.14;100.00;100972.78;4999231;28;20379;-74
2022/12/08 09:19:38;;;;;;;9.73;6.47;;;;;;;-0.18;100.00;100979.25;5031445;28;20048;-73
2022/12/08 09:22:04;;;;;;;9.63;5.97;;;;;;;-0.20;100.00;100973.22;4999164;28;20029;-74
2022/12/08 09:24:30;;;;;;;11.82;6.10;;;;;;;-0.13;100.00;100979.75;5031540;28;20029;-74
2022/12/08 09:26:56;;;;;;;14.55;6.82;;;;;;;-0.36;100.00;100926.66;5002667;28;20061;-73
2022/12/08 09:29:27;;;;;;;11.27;6.57;;;;;;;0.02;100.00;100970.81;5002312;28;20399;-75
2022/12/08 09:31:56;;;;;;;12.13;7.55;;;;;;;0.17;100.00;100972.44;5036105;28;20033;-75
2022/12/08 09:34:21;;;;;;;20.95;11.15;;;;;;;0.31;100.00;100974.13;5001507;28;20039;-79
2022/12/08 09:36:47;;;;;;;22.98;10.48;;;;;;;0.43;100.00;100967.19;5018588;28;20468;-80
2022/12/08 09:39:13;;;;;;;33.45;14.75;;;;;;;0.53;100.00;100962.06;5035014;28;20365;-79
2022/12/08 09:41:44;;;;;;;22.05;10.68;;;;;;;0.77;100.00;100965.69;5018516;28;20030;-78
2022/12/08 09:44:43;;;;;;;35.28;13.63;;;;;;;1.47;100.00;100956.28;5018460;28;20031;-79
2022/12/08 09:47:31;;;;;;;31.83;14.65;;;;;;;2.07;100.00;100965.94;5017626;28;20534;-79
2022/12/08 09:50:23;;;;;;;21.77;10.70;;;;;;;2.37;100.00;100962.75;5034543;28;20029;-78
2022/12/08 09:53:15;;;;;;;;;;;;;;;2.53;100.00;100957.09;5034613;28;20103;-76
2022/12/08 09:55:45;;;;;;;18.83;10.60;;;;;;;2.45;100.00;100951.53;5034349;28;19917;-78
2022/12/08 09:58:30;;;;;;;7.55;5.40;;;;;;;2.29;100.00;100962.50;5017982;28;20040;-78
2022/12/08 10:00:55;;;;;;;8.88;6.07;;;;;;;2.21;100.00;100956.94;5034991;28;20505;-78
2022/12/08 10:03:24;;;;;;;10.43;5.22;;;;;;;2.15;100.00;100960.91;5034394;28;20026;-78
2022/12/08 10:06:00;;;;;;;9.50;5.22;;;;;;;2.07;100.00;100951.84;5017661;28;20073;-78
2022/12/08 10:08:39;;;;;;;7.97;3.70;;;;;;;2.02;100.00;100954.00;5034464;28;20042;-78
2022/12/08 10:11:13;;;;;;;13.20;4.35;;;;;;;2.03;100.00;100955.66;5018028;28;20048;-77
2022/12/08 10:13:49;;;;;;;9.18;4.25;;;;;;;2.01;100.00;100946.97;5018175;28;20033;-78
2022/12/08 10:16:24;;;;;;;8.10;4.50;;;;;;;2.11;100.00;100950.63;5001766;28;20037;-78
2022/12/08 10:18:56;;;;;;;7.40;4.60;;;;;;;2.11;100.00;100940.84;5018087;28;20065;-78
2022/12/08 10:21:26;;;;;;;6.60;4.32;;;;;;;2.20;100.00;100947.28;5017759;28;20029;-78
2022/12/08 10:23:57;;;;;;;9.82;5.50;;;;;;;2.32;100.00;100951.63;5017813;28;20060;-78
2022/12/08 10:26:22;;;;;;;7.78;4.35;;;;;;;2.24;100.00;100943.44;5017830;28;20540;-77
2022/12/08 10:28:48;;;;;;;7.72;5.38;;;;;;;2.11;100.00;100945.31;5034060;28;20029;-77
2022/12/08 10:31:20;;;;;;;12.48;6.07;;;;;;;2.15;100.00;100941.50;5034281;28;20033;-77
2022/12/08 10:33:47;;;;;;;9.20;6.82;;;;;;;2.23;100.00;100943.56;5033698;28;20471;-77
2022/12/08 10:36:13;;;;;;;8.00;3.50;;;;;;;2.07;100.00;100941.22;5001197;28;20045;-77
2022/12/08 10:38:39;;;;;;;9.73;5.13;;;;;;;2.05;100.00;100949.28;5034879;28;20029;-78
2022/12/08 10:41:10;;;;;;;11.45;7.20;;;;;;;2.38;100.00;100960.94;5033747;28;20463;-77
2022/12/08 10:43:48;;;;;;;15.55;7.50;;;;;;;3.14;100.00;100958.56;5033380;28;20033;-78
2022/12/08 10:46:17;;;;;;;7.40;4.57;;;;;;;3.29;100.00;100967.97;5033294;28;20463;-77
2022/12/08 10:48:48;;;;;;;2.22;1.95;;;;;;;3.09;100.00;100966.88;5033846;28;20025;-78
2022/12/08 10:51:27;;;;;;;2.20;1.88;;;;;;;2.90;100.00;100971.97;5033839;28;20034;-78
2022/12/08 10:53:53;;;;;;;3.17;2.80;;;;;;;2.90;100.00;100972.81;5050182;28;20044;-78
2022/12/08 10:56:23;;;;;;;2.78;2.30;;;;;;;2.72;100.00;100964.47;5000749;28;20041;-78
2022/12/08 10:59:07;;;;;;;2.42;1.95;;;;;;;2.60;100.00;100971.59;5017122;28;20124;-77
2022/12/08 11:01:36;;;;;;;3.05;2.33;;;;;;;2.67;100.00;100966.63;5033710;28;20043;-78
2022/12/08 11:04:04;;;;;;;5.38;3.35;;;;;;;2.71;100.00;100949.53;5000887;28;20029;-78
2022/12/08 11:06:33;;;;;;;5.00;2.22;;;;;;;2.84;100.00;100962.69;5033492;28;20033;-79
2022/12/08 11:09:16;;;;;;;0.95;0.85;;;;;;;2.87;100.00;100962.44;5033287;28;20033;-79
2022/12/08 11:11:50;;;;;;;2.95;1.88;;;;;;;2.92;100.00;100954.94;5033133;28;20040;-77
2022/12/08 11:14:29;;;;;;;2.17;1.73;;;;;;;2.95;100.00;100954.69;5033171;28;20037;-77
2022/12/08 11:17:01;;;;;;;3.55;2.00;;;;;;;2.94;100.00;100958.34;5000847;28;20033;-78
2022/12/08 11:19:27;;;;;;;1.98;1.75;;;;;;;3.05;100.00;100947.69;5033242;28;20109;-77
2022/12/08 11:21:53;;;;;;;4.00;2.20;;;;;;;3.47;100.00;100945.19;5016654;28;20037;-78